sensor_id;sensor_type;location;lat;lon;timestamp;temperature;humidity
1175;DHT22;576;48.418;10.074;2024-01-27T00:00:01;22.60;55.70
1175;DHT22;576;48.418;10.074;2024-01-27T00:02:34;22.60;55.70
1175;DHT22;576;48.418;10.074;2024-01-27T00:05:03;22.60;55.70
1175;DHT22;576;48.418;10.074;2024-01-27T00:07:31;22.60;55.60
1175;DHT22;576;48.418;10.074;2024-01-27T00:09:59;22.60;55.60
1175;DHT22;576;48.418;10.074;2024-01-27T00:12:29;22.60;55.60
1175;DHT22;576;48.418;10.074;2024-01-27T00:14:57;22.50;55.60
1175;DHT22;576;48.418;10.074;2024-01-27T00:17:26;22.50;55.60
1175;DHT22;576;48.418;10.074;2024-01-27T00:19:54;22.50;55.60
1175;DHT22;576;48.418;10.074;2024-01-27T00:22:23;22.50;55.60
1175;DHT22;576;48.418;10.074;2024-01-27T00:24:51;22.50;55.60
1175;DHT22;576;48.418;10.074;2024-01-27T00:27:19;22.50;55.60
1175;DHT22;576;48.418;10.074;2024-01-27T00:29:49;22.50;55.60
1175;DHT22;576;48.418;10.074;2024-01-27T00:32:17;22.50;55.60
1175;DHT22;576;48.418;10.074;2024-01-27T00:34:46;22.50;55.60
1175;DHT22;576;48.418;10.074;2024-01-27T00:37:14;22.50;55.60
1175;DHT22;576;48.418;10.074;2024-01-27T00:39:43;22.50;55.60
1175;DHT22;576;48.418;10.074;2024-01-27T00:42:12;22.50;55.60
1175;DHT22;576;48.418;10.074;2024-01-27T00:44:40;22.50;55.60
1175;DHT22;576;48.418;10.074;2024-01-27T00:47:10;22.50;55.60
1175;DHT22;576;48.418;10.074;2024-01-27T00:49:38;22.40;55.60
1175;DHT22;576;48.418;10.074;2024-01-27T00:52:06;22.40;55.60
1175;DHT22;576;48.418;10.074;2024-01-27T00:54:35;22.40;55.60
1175;DHT22;576;48.418;10.074;2024-01-27T00:57:03;22.40;55.60
1175;DHT22;576;48.418;10.074;2024-01-27T00:59:31;22.40;55.60
1175;DHT22;576;48.418;10.074;2024-01-27T01:02:00;22.40;55.60
1175;DHT22;576;48.418;10.074;2024-01-27T01:04:29;22.40;55.60
1175;DHT22;576;48.418;10.074;2024-01-27T01:06:58;22.40;55.60
1175;DHT22;576;48.418;10.074;2024-01-27T01:09:26;22.50;55.60
1175;DHT22;576;48.418;10.074;2024-01-27T01:11:55;22.40;55.60
1175;DHT22;576;48.418;10.074;2024-01-27T01:14:23;22.40;55.50
1175;DHT22;576;48.418;10.074;2024-01-27T01:16:51;22.50;55.50
1175;DHT22;576;48.418;10.074;2024-01-27T01:19:20;22.40;55.50
1175;DHT22;576;48.418;10.074;2024-01-27T01:21:50;22.50;55.50
1175;DHT22;576;48.418;10.074;2024-01-27T01:24:18;22.50;55.40
1175;DHT22;576;48.418;10.074;2024-01-27T01:26:46;22.50;55.40
1175;DHT22;576;48.418;10.074;2024-01-27T01:29:14;22.40;55.40
1175;DHT22;576;48.418;10.074;2024-01-27T01:31:43;22.40;55.50
1175;DHT22;576;48.418;10.074;2024-01-27T01:34:11;22.40;55.50
1175;DHT22;576;48.418;10.074;2024-01-27T01:36:40;22.50;55.50
1175;DHT22;576;48.418;10.074;2024-01-27T01:39:10;22.50;55.40
1175;DHT22;576;48.418;10.074;2024-01-27T01:41:39;22.50;55.40
1175;DHT22;576;48.418;10.074;2024-01-27T01:44:08;22.40;55.40
1175;DHT22;576;48.418;10.074;2024-01-27T01:46:36;22.40;55.40
1175;DHT22;576;48.418;10.074;2024-01-27T01:49:05;22.40;55.40
1175;DHT22;576;48.418;10.074;2024-01-27T01:51:33;22.50;55.40
1175;DHT22;576;48.418;10.074;2024-01-27T01:54:02;22.40;55.40
1175;DHT22;576;48.418;10.074;2024-01-27T01:56:32;22.40;55.40
1175;DHT22;576;48.418;10.074;2024-01-27T01:59:00;22.40;55.40
1175;DHT22;576;48.418;10.074;2024-01-27T02:01:29;22.40;55.40
1175;DHT22;576;48.418;10.074;2024-01-27T02:03:57;22.40;55.40
1175;DHT22;576;48.418;10.074;2024-01-27T02:06:26;22.40;55.40
1175;DHT22;576;48.418;10.074;2024-01-27T02:08:54;22.40;55.30
1175;DHT22;576;48.418;10.074;2024-01-27T02:11:23;22.40;55.30
1175;DHT22;576;48.418;10.074;2024-01-27T02:13:52;22.40;55.30
1175;DHT22;576;48.418;10.074;2024-01-27T02:16:21;22.40;55.30
1175;DHT22;576;48.418;10.074;2024-01-27T02:18:49;22.40;55.30
1175;DHT22;576;48.418;10.074;2024-01-27T02:21:18;22.40;55.30
1175;DHT22;576;48.418;10.074;2024-01-27T02:23:46;22.40;55.30
1175;DHT22;576;48.418;10.074;2024-01-27T02:26:17;22.40;55.30
1175;DHT22;576;48.418;10.074;2024-01-27T02:28:45;22.40;55.20
1175;DHT22;576;48.418;10.074;2024-01-27T02:31:13;22.40;55.20
1175;DHT22;576;48.418;10.074;2024-01-27T02:33:42;22.40;55.20
1175;DHT22;576;48.418;10.074;2024-01-27T02:36:10;22.40;55.20
1175;DHT22;576;48.418;10.074;2024-01-27T02:38:38;22.40;55.20
1175;DHT22;576;48.418;10.074;2024-01-27T02:41:08;22.40;55.20
1175;DHT22;576;48.418;10.074;2024-01-27T02:43:38;22.40;55.20
1175;DHT22;576;48.418;10.074;2024-01-27T02:46:09;22.40;55.20
1175;DHT22;576;48.418;10.074;2024-01-27T02:48:40;22.30;55.10
1175;DHT22;576;48.418;10.074;2024-01-27T02:51:08;22.40;55.10
1175;DHT22;576;48.418;10.074;2024-01-27T02:53:37;22.40;55.10
1175;DHT22;576;48.418;10.074;2024-01-27T02:56:06;22.30;55.10
1175;DHT22;576;48.418;10.074;2024-01-27T02:58:35;22.30;55.00
1175;DHT22;576;48.418;10.074;2024-01-27T03:01:05;22.30;55.00
1175;DHT22;576;48.418;10.074;2024-01-27T03:03:33;22.30;55.00
1175;DHT22;576;48.418;10.074;2024-01-27T03:06:02;22.30;55.00
1175;DHT22;576;48.418;10.074;2024-01-27T03:08:31;22.30;55.00
1175;DHT22;576;48.418;10.074;2024-01-27T03:11:00;22.30;55.00
1175;DHT22;576;48.418;10.074;2024-01-27T03:13:28;22.30;55.00
1175;DHT22;576;48.418;10.074;2024-01-27T03:15:57;22.30;55.00
1175;DHT22;576;48.418;10.074;2024-01-27T03:18:26;22.30;55.00
1175;DHT22;576;48.418;10.074;2024-01-27T03:20:55;22.30;55.00
1175;DHT22;576;48.418;10.074;2024-01-27T03:23:23;22.30;54.90
1175;DHT22;576;48.418;10.074;2024-01-27T03:25:51;22.30;54.90
1175;DHT22;576;48.418;10.074;2024-01-27T03:28:20;22.20;54.90
1175;DHT22;576;48.418;10.074;2024-01-27T03:30:48;22.30;54.90
1175;DHT22;576;48.418;10.074;2024-01-27T03:33:17;22.20;54.80
1175;DHT22;576;48.418;10.074;2024-01-27T03:35:46;22.20;54.80
1175;DHT22;576;48.418;10.074;2024-01-27T03:38:15;22.20;54.80
1175;DHT22;576;48.418;10.074;2024-01-27T03:40:43;22.20;54.80
1175;DHT22;576;48.418;10.074;2024-01-27T03:43:11;22.20;54.80
1175;DHT22;576;48.418;10.074;2024-01-27T03:45:40;22.20;54.80
1175;DHT22;576;48.418;10.074;2024-01-27T03:48:08;22.20;54.70
1175;DHT22;576;48.418;10.074;2024-01-27T03:50:36;22.10;54.70
1175;DHT22;576;48.418;10.074;2024-01-27T03:53:06;22.10;54.70
1175;DHT22;576;48.418;10.074;2024-01-27T03:55:34;22.10;54.70
1175;DHT22;576;48.418;10.074;2024-01-27T03:58:03;22.10;54.70
1175;DHT22;576;48.418;10.074;2024-01-27T04:00:31;22.10;54.70
1175;DHT22;576;48.418;10.074;2024-01-27T04:03:00;22.10;54.70
1175;DHT22;576;48.418;10.074;2024-01-27T04:05:29;22.00;54.70
1175;DHT22;576;48.418;10.074;2024-01-27T04:07:58;22.00;54.70
1175;DHT22;576;48.418;10.074;2024-01-27T04:10:27;22.00;54.70
1175;DHT22;576;48.418;10.074;2024-01-27T04:12:56;22.00;54.70
1175;DHT22;576;48.418;10.074;2024-01-27T04:15:24;22.00;54.70
1175;DHT22;576;48.418;10.074;2024-01-27T04:17:53;22.00;54.70
1175;DHT22;576;48.418;10.074;2024-01-27T04:20:21;22.00;54.70
1175;DHT22;576;48.418;10.074;2024-01-27T04:22:50;22.00;54.70
1175;DHT22;576;48.418;10.074;2024-01-27T04:25:18;21.90;54.70
1175;DHT22;576;48.418;10.074;2024-01-27T04:27:47;22.00;54.70
1175;DHT22;576;48.418;10.074;2024-01-27T04:30:16;22.00;54.70
1175;DHT22;576;48.418;10.074;2024-01-27T04:32:44;22.00;54.70
1175;DHT22;576;48.418;10.074;2024-01-27T04:35:13;22.00;54.70
1175;DHT22;576;48.418;10.074;2024-01-27T04:37:41;22.00;54.70
1175;DHT22;576;48.418;10.074;2024-01-27T04:40:11;22.10;54.70
1175;DHT22;576;48.418;10.074;2024-01-27T04:42:40;22.10;54.60
1175;DHT22;576;48.418;10.074;2024-01-27T04:45:10;22.10;54.50
1175;DHT22;576;48.418;10.074;2024-01-27T04:47:38;22.20;54.50
1175;DHT22;576;48.418;10.074;2024-01-27T04:50:07;22.20;54.50
1175;DHT22;576;48.418;10.074;2024-01-27T04:52:36;22.30;54.40
1175;DHT22;576;48.418;10.074;2024-01-27T04:55:05;22.30;54.40
1175;DHT22;576;48.418;10.074;2024-01-27T04:57:33;22.40;54.30
1175;DHT22;576;48.418;10.074;2024-01-27T05:00:02;22.40;54.20
1175;DHT22;576;48.418;10.074;2024-01-27T05:02:34;22.50;54.10
1175;DHT22;576;48.418;10.074;2024-01-27T05:05:02;22.50;54.00
1175;DHT22;576;48.418;10.074;2024-01-27T05:07:31;22.50;53.90
1175;DHT22;576;48.418;10.074;2024-01-27T05:09:59;22.50;53.90
1175;DHT22;576;48.418;10.074;2024-01-27T05:12:27;22.50;53.80
1175;DHT22;576;48.418;10.074;2024-01-27T05:14:55;22.50;53.80
1175;DHT22;576;48.418;10.074;2024-01-27T05:17:24;22.50;53.80
1175;DHT22;576;48.418;10.074;2024-01-27T05:19:53;22.40;53.80
1175;DHT22;576;48.418;10.074;2024-01-27T05:22:22;22.40;53.80
1175;DHT22;576;48.418;10.074;2024-01-27T05:24:50;22.40;53.90
1175;DHT22;576;48.418;10.074;2024-01-27T05:27:18;22.40;53.90
1175;DHT22;576;48.418;10.074;2024-01-27T05:29:46;22.30;53.90
1175;DHT22;576;48.418;10.074;2024-01-27T05:32:15;22.30;53.90
1175;DHT22;576;48.418;10.074;2024-01-27T05:34:43;22.30;53.90
1175;DHT22;576;48.418;10.074;2024-01-27T05:37:13;22.20;53.90
1175;DHT22;576;48.418;10.074;2024-01-27T05:39:41;22.20;53.90
1175;DHT22;576;48.418;10.074;2024-01-27T05:42:09;22.20;54.00
1175;DHT22;576;48.418;10.074;2024-01-27T05:44:38;22.20;54.00
1175;DHT22;576;48.418;10.074;2024-01-27T05:47:07;22.10;54.00
1175;DHT22;576;48.418;10.074;2024-01-27T05:49:38;22.10;54.00
1175;DHT22;576;48.418;10.074;2024-01-27T05:52:07;22.10;54.00
1175;DHT22;576;48.418;10.074;2024-01-27T05:54:36;22.10;54.00
1175;DHT22;576;48.418;10.074;2024-01-27T05:57:07;22.10;54.10
1175;DHT22;576;48.418;10.074;2024-01-27T05:59:35;22.10;54.10
1175;DHT22;576;48.418;10.074;2024-01-27T06:02:04;22.10;54.10
1175;DHT22;576;48.418;10.074;2024-01-27T06:04:32;22.10;54.10
1175;DHT22;576;48.418;10.074;2024-01-27T06:07:01;22.10;54.10
1175;DHT22;576;48.418;10.074;2024-01-27T06:09:29;22.10;54.10
1175;DHT22;576;48.418;10.074;2024-01-27T06:12:00;22.10;54.10
1175;DHT22;576;48.418;10.074;2024-01-27T06:14:28;22.10;54.00
1175;DHT22;576;48.418;10.074;2024-01-27T06:16:56;22.20;54.00
1175;DHT22;576;48.418;10.074;2024-01-27T06:19:25;22.20;54.00
1175;DHT22;576;48.418;10.074;2024-01-27T06:21:53;22.20;53.90
1175;DHT22;576;48.418;10.074;2024-01-27T06:24:21;22.20;53.90
1175;DHT22;576;48.418;10.074;2024-01-27T06:26:50;22.20;53.80
1175;DHT22;576;48.418;10.074;2024-01-27T06:29:20;22.20;53.80
1175;DHT22;576;48.418;10.074;2024-01-27T06:31:49;22.20;53.70
1175;DHT22;576;48.418;10.074;2024-01-27T06:34:18;22.20;53.70
1175;DHT22;576;48.418;10.074;2024-01-27T06:36:46;22.20;53.80
1175;DHT22;576;48.418;10.074;2024-01-27T06:39:15;22.20;53.80
1175;DHT22;576;48.418;10.074;2024-01-27T06:41:43;22.20;54.00
1175;DHT22;576;48.418;10.074;2024-01-27T06:44:11;22.20;54.10
1175;DHT22;576;48.418;10.074;2024-01-27T06:46:41;22.10;54.20
1175;DHT22;576;48.418;10.074;2024-01-27T06:49:11;22.10;54.40
1175;DHT22;576;48.418;10.074;2024-01-27T06:51:40;22.10;54.60
1175;DHT22;576;48.418;10.074;2024-01-27T06:54:09;22.10;54.70
1175;DHT22;576;48.418;10.074;2024-01-27T06:56:37;22.10;54.80
1175;DHT22;576;48.418;10.074;2024-01-27T06:59:05;22.10;54.90
1175;DHT22;576;48.418;10.074;2024-01-27T07:01:34;22.10;54.90
1175;DHT22;576;48.418;10.074;2024-01-27T07:04:04;22.10;55.00
1175;DHT22;576;48.418;10.074;2024-01-27T07:06:32;22.10;55.00
1175;DHT22;576;48.418;10.074;2024-01-27T07:09:00;22.10;55.10
1175;DHT22;576;48.418;10.074;2024-01-27T07:11:29;22.10;55.10
1175;DHT22;576;48.418;10.074;2024-01-27T07:13:57;22.10;55.10
1175;DHT22;576;48.418;10.074;2024-01-27T07:16:26;22.10;55.20
1175;DHT22;576;48.418;10.074;2024-01-27T07:18:54;22.10;55.30
1175;DHT22;576;48.418;10.074;2024-01-27T07:21:24;22.10;55.30
1175;DHT22;576;48.418;10.074;2024-01-27T07:23:53;22.10;55.40
1175;DHT22;576;48.418;10.074;2024-01-27T07:26:21;22.20;55.40
1175;DHT22;576;48.418;10.074;2024-01-27T07:28:50;22.10;55.40
1175;DHT22;576;48.418;10.074;2024-01-27T07:31:18;22.20;55.30
1175;DHT22;576;48.418;10.074;2024-01-27T07:33:47;22.20;55.30
1175;DHT22;576;48.418;10.074;2024-01-27T07:36:15;22.20;55.30
1175;DHT22;576;48.418;10.074;2024-01-27T07:38:45;22.20;55.30
1175;DHT22;576;48.418;10.074;2024-01-27T07:41:13;22.20;55.30
1175;DHT22;576;48.418;10.074;2024-01-27T07:43:42;22.10;55.40
1175;DHT22;576;48.418;10.074;2024-01-27T07:46:10;22.20;55.40
1175;DHT22;576;48.418;10.074;2024-01-27T07:48:39;22.10;55.40
1175;DHT22;576;48.418;10.074;2024-01-27T07:51:08;22.10;55.40
1175;DHT22;576;48.418;10.074;2024-01-27T07:53:36;22.10;55.40
1175;DHT22;576;48.418;10.074;2024-01-27T07:56:07;22.10;55.40
1175;DHT22;576;48.418;10.074;2024-01-27T07:58:35;22.10;55.50
1175;DHT22;576;48.418;10.074;2024-01-27T08:01:04;22.10;55.50
1175;DHT22;576;48.418;10.074;2024-01-27T08:03:32;22.10;55.50
1175;DHT22;576;48.418;10.074;2024-01-27T08:06:04;22.10;55.60
1175;DHT22;576;48.418;10.074;2024-01-27T08:08:34;22.10;55.60
1175;DHT22;576;48.418;10.074;2024-01-27T08:11:03;22.10;55.60
1175;DHT22;576;48.418;10.074;2024-01-27T08:13:32;22.10;55.60
1175;DHT22;576;48.418;10.074;2024-01-27T08:16:01;22.10;55.60
1175;DHT22;576;48.418;10.074;2024-01-27T08:18:29;22.10;55.60
1175;DHT22;576;48.418;10.074;2024-01-27T08:20:58;22.10;55.70
1175;DHT22;576;48.418;10.074;2024-01-27T08:23:26;22.10;55.70
1175;DHT22;576;48.418;10.074;2024-01-27T08:25:54;22.10;55.70
1175;DHT22;576;48.418;10.074;2024-01-27T08:28:22;22.10;55.70
1175;DHT22;576;48.418;10.074;2024-01-27T08:30:51;22.10;55.70
1175;DHT22;576;48.418;10.074;2024-01-27T08:33:20;22.10;55.70
1175;DHT22;576;48.418;10.074;2024-01-27T08:35:48;22.10;55.70
1175;DHT22;576;48.418;10.074;2024-01-27T08:38:16;22.10;55.70
1175;DHT22;576;48.418;10.074;2024-01-27T08:40:45;22.10;55.60
1175;DHT22;576;48.418;10.074;2024-01-27T08:43:13;22.10;55.60
1175;DHT22;576;48.418;10.074;2024-01-27T08:45:41;22.10;55.60
1175;DHT22;576;48.418;10.074;2024-01-27T08:48:11;22.10;55.50
1175;DHT22;576;48.418;10.074;2024-01-27T08:50:40;22.10;55.50
1175;DHT22;576;48.418;10.074;2024-01-27T08:53:08;22.10;55.50
1175;DHT22;576;48.418;10.074;2024-01-27T08:55:36;22.10;55.50
1175;DHT22;576;48.418;10.074;2024-01-27T08:58:05;22.10;55.50
1175;DHT22;576;48.418;10.074;2024-01-27T09:00:33;22.10;55.50
1175;DHT22;576;48.418;10.074;2024-01-27T09:03:02;22.20;55.50
1175;DHT22;576;48.418;10.074;2024-01-27T09:05:32;22.20;55.40
1175;DHT22;576;48.418;10.074;2024-01-27T09:08:00;22.20;55.40
1175;DHT22;576;48.418;10.074;2024-01-27T09:10:28;22.20;55.40
1175;DHT22;576;48.418;10.074;2024-01-27T09:12:56;22.20;55.30
1175;DHT22;576;48.418;10.074;2024-01-27T09:15:25;22.20;55.30
1175;DHT22;576;48.418;10.074;2024-01-27T09:17:53;22.20;55.30
1175;DHT22;576;48.418;10.074;2024-01-27T09:20:22;22.20;55.30
1175;DHT22;576;48.418;10.074;2024-01-27T09:22:52;22.20;55.40
1175;DHT22;576;48.418;10.074;2024-01-27T09:25:20;22.20;55.40
1175;DHT22;576;48.418;10.074;2024-01-27T09:27:49;22.20;55.40
1175;DHT22;576;48.418;10.074;2024-01-27T09:30:17;22.20;55.40
1175;DHT22;576;48.418;10.074;2024-01-27T09:32:46;22.20;55.40
1175;DHT22;576;48.418;10.074;2024-01-27T09:35:14;22.20;55.40
1175;DHT22;576;48.418;10.074;2024-01-27T09:37:42;22.20;55.50
1175;DHT22;576;48.418;10.074;2024-01-27T09:40:14;22.20;55.60
1175;DHT22;576;48.418;10.074;2024-01-27T09:42:49;22.20;55.60
1175;DHT22;576;48.418;10.074;2024-01-27T09:45:20;22.20;55.70
1175;DHT22;576;48.418;10.074;2024-01-27T09:47:49;22.20;55.70
1175;DHT22;576;48.418;10.074;2024-01-27T09:50:21;22.20;55.80
1175;DHT22;576;48.418;10.074;2024-01-27T09:52:50;22.20;55.80
1175;DHT22;576;48.418;10.074;2024-01-27T09:55:20;22.20;55.80
1175;DHT22;576;48.418;10.074;2024-01-27T09:57:48;22.20;56.00
1175;DHT22;576;48.418;10.074;2024-01-27T10:00:19;22.20;56.00
1175;DHT22;576;48.418;10.074;2024-01-27T10:02:48;22.20;56.00
1175;DHT22;576;48.418;10.074;2024-01-27T10:05:18;22.20;56.00
1175;DHT22;576;48.418;10.074;2024-01-27T10:07:47;22.20;55.60
1175;DHT22;576;48.418;10.074;2024-01-27T10:10:15;22.20;54.90
1175;DHT22;576;48.418;10.074;2024-01-27T10:12:45;22.10;54.40
1175;DHT22;576;48.418;10.074;2024-01-27T10:15:18;22.10;53.70
1175;DHT22;576;48.418;10.074;2024-01-27T10:17:48;22.10;53.30
1175;DHT22;576;48.418;10.074;2024-01-27T10:20:16;22.10;53.10
1175;DHT22;576;48.418;10.074;2024-01-27T10:22:46;22.10;53.00
1175;DHT22;576;48.418;10.074;2024-01-27T10:25:15;22.10;53.10
1175;DHT22;576;48.418;10.074;2024-01-27T10:27:45;22.10;53.10
1175;DHT22;576;48.418;10.074;2024-01-27T10:30:16;22.20;53.10
1175;DHT22;576;48.418;10.074;2024-01-27T10:32:55;22.20;53.00
1175;DHT22;576;48.418;10.074;2024-01-27T10:35:24;22.30;53.00
1175;DHT22;576;48.418;10.074;2024-01-27T10:37:53;22.40;52.80
1175;DHT22;576;48.418;10.074;2024-01-27T10:40:26;22.50;52.70
1175;DHT22;576;48.418;10.074;2024-01-27T10:43:01;22.50;52.60
1175;DHT22;576;48.418;10.074;2024-01-27T10:45:35;22.70;52.40
1175;DHT22;576;48.418;10.074;2024-01-27T10:48:05;22.70;52.30
1175;DHT22;576;48.418;10.074;2024-01-27T10:50:38;22.80;52.20
1175;DHT22;576;48.418;10.074;2024-01-27T10:53:20;22.90;51.90
1175;DHT22;576;48.418;10.074;2024-01-27T10:55:51;23.10;51.70
1175;DHT22;576;48.418;10.074;2024-01-27T10:58:23;23.20;51.50
1175;DHT22;576;48.418;10.074;2024-01-27T11:00:52;23.30;51.50
1175;DHT22;576;48.418;10.074;2024-01-27T11:03:22;23.50;51.50
1175;DHT22;576;48.418;10.074;2024-01-27T11:05:52;23.70;51.00
1175;DHT22;576;48.418;10.074;2024-01-27T11:08:24;23.80;50.90
1175;DHT22;576;48.418;10.074;2024-01-27T11:10:58;24.00;50.60
1175;DHT22;576;48.418;10.074;2024-01-27T11:13:28;24.20;50.40
1175;DHT22;576;48.418;10.074;2024-01-27T11:15:58;24.30;50.30
1175;DHT22;576;48.418;10.074;2024-01-27T11:18:27;24.40;50.30
1175;DHT22;576;48.418;10.074;2024-01-27T11:20:58;24.40;50.20
1175;DHT22;576;48.418;10.074;2024-01-27T11:23:34;24.50;50.10
1175;DHT22;576;48.418;10.074;2024-01-27T11:26:04;24.60;50.10
1175;DHT22;576;48.418;10.074;2024-01-27T11:28:33;24.60;50.30
1175;DHT22;576;48.418;10.074;2024-01-27T11:31:07;24.60;50.40
1175;DHT22;576;48.418;10.074;2024-01-27T11:33:41;24.70;50.30
1175;DHT22;576;48.418;10.074;2024-01-27T11:36:18;24.70;50.30
1175;DHT22;576;48.418;10.074;2024-01-27T11:38:48;24.80;50.10
1175;DHT22;576;48.418;10.074;2024-01-27T11:41:27;24.80;50.10
1175;DHT22;576;48.418;10.074;2024-01-27T11:43:58;24.80;50.00
1175;DHT22;576;48.418;10.074;2024-01-27T11:46:28;24.80;49.90
1175;DHT22;576;48.418;10.074;2024-01-27T11:48:56;24.90;49.90
1175;DHT22;576;48.418;10.074;2024-01-27T11:51:25;24.90;50.10
1175;DHT22;576;48.418;10.074;2024-01-27T11:53:53;24.90;50.10
1175;DHT22;576;48.418;10.074;2024-01-27T11:56:21;24.90;49.80
1175;DHT22;576;48.418;10.074;2024-01-27T11:58:50;25.00;49.70
1175;DHT22;576;48.418;10.074;2024-01-27T12:01:19;25.00;49.80
1175;DHT22;576;48.418;10.074;2024-01-27T12:03:48;25.00;49.70
1175;DHT22;576;48.418;10.074;2024-01-27T12:06:17;25.10;49.70
1175;DHT22;576;48.418;10.074;2024-01-27T12:08:45;25.10;49.80
1175;DHT22;576;48.418;10.074;2024-01-27T12:11:16;25.10;49.70
1175;DHT22;576;48.418;10.074;2024-01-27T12:13:51;25.10;49.80
1175;DHT22;576;48.418;10.074;2024-01-27T12:16:22;25.20;49.90
1175;DHT22;576;48.418;10.074;2024-01-27T12:18:52;25.20;49.90
1175;DHT22;576;48.418;10.074;2024-01-27T12:21:21;25.20;49.90
1175;DHT22;576;48.418;10.074;2024-01-27T12:23:52;25.30;49.90
1175;DHT22;576;48.418;10.074;2024-01-27T12:26:21;25.30;49.90
1175;DHT22;576;48.418;10.074;2024-01-27T12:28:50;25.30;49.90
1175;DHT22;576;48.418;10.074;2024-01-27T12:31:18;25.30;49.80
1175;DHT22;576;48.418;10.074;2024-01-27T12:33:53;25.30;49.80
1175;DHT22;576;48.418;10.074;2024-01-27T12:36:22;25.30;49.80
1175;DHT22;576;48.418;10.074;2024-01-27T12:38:54;25.40;49.80
1175;DHT22;576;48.418;10.074;2024-01-27T12:41:23;25.40;49.70
1175;DHT22;576;48.418;10.074;2024-01-27T12:43:52;25.40;49.70
1175;DHT22;576;48.418;10.074;2024-01-27T12:46:20;25.40;49.80
1175;DHT22;576;48.418;10.074;2024-01-27T12:48:50;25.40;49.80
1175;DHT22;576;48.418;10.074;2024-01-27T12:51:20;25.40;49.90
1175;DHT22;576;48.418;10.074;2024-01-27T12:53:48;25.40;50.00
1175;DHT22;576;48.418;10.074;2024-01-27T12:56:17;25.30;50.20
1175;DHT22;576;48.418;10.074;2024-01-27T12:58:45;25.30;50.20
1175;DHT22;576;48.418;10.074;2024-01-27T13:01:13;25.40;50.10
1175;DHT22;576;48.418;10.074;2024-01-27T13:03:42;25.40;50.10
1175;DHT22;576;48.418;10.074;2024-01-27T13:06:13;25.40;50.00
1175;DHT22;576;48.418;10.074;2024-01-27T13:08:42;25.50;49.90
1175;DHT22;576;48.418;10.074;2024-01-27T13:11:10;25.50;49.80
1175;DHT22;576;48.418;10.074;2024-01-27T13:13:40;25.50;49.60
1175;DHT22;576;48.418;10.074;2024-01-27T13:16:09;25.50;49.70
1175;DHT22;576;48.418;10.074;2024-01-27T13:18:37;25.50;49.40
1175;DHT22;576;48.418;10.074;2024-01-27T13:21:06;25.50;49.40
1175;DHT22;576;48.418;10.074;2024-01-27T13:23:36;25.50;49.30
1175;DHT22;576;48.418;10.074;2024-01-27T13:26:04;25.40;49.30
1175;DHT22;576;48.418;10.074;2024-01-27T13:28:45;25.40;49.30
1175;DHT22;576;48.418;10.074;2024-01-27T13:31:16;25.40;49.30
1175;DHT22;576;48.418;10.074;2024-01-27T13:33:45;25.30;49.30
1175;DHT22;576;48.418;10.074;2024-01-27T13:36:14;25.30;49.30
1175;DHT22;576;48.418;10.074;2024-01-27T13:38:45;25.30;49.40
1175;DHT22;576;48.418;10.074;2024-01-27T13:41:13;25.20;49.60
1175;DHT22;576;48.418;10.074;2024-01-27T13:43:42;25.20;49.70
1175;DHT22;576;48.418;10.074;2024-01-27T13:46:10;25.10;49.80
1175;DHT22;576;48.418;10.074;2024-01-27T13:48:39;25.10;49.70
1175;DHT22;576;48.418;10.074;2024-01-27T13:51:09;25.00;49.80
1175;DHT22;576;48.418;10.074;2024-01-27T13:53:37;25.00;49.90
1175;DHT22;576;48.418;10.074;2024-01-27T13:56:15;25.00;50.00
1175;DHT22;576;48.418;10.074;2024-01-27T13:58:43;24.90;50.10
1175;DHT22;576;48.418;10.074;2024-01-27T14:01:11;24.90;50.10
1175;DHT22;576;48.418;10.074;2024-01-27T14:03:40;24.80;50.20
1175;DHT22;576;48.418;10.074;2024-01-27T14:06:08;24.80;50.20
1175;DHT22;576;48.418;10.074;2024-01-27T14:08:40;24.80;50.30
1175;DHT22;576;48.418;10.074;2024-01-27T14:11:09;24.70;50.40
1175;DHT22;576;48.418;10.074;2024-01-27T14:13:39;24.70;50.50
1175;DHT22;576;48.418;10.074;2024-01-27T14:16:08;24.70;50.60
1175;DHT22;576;48.418;10.074;2024-01-27T14:18:37;24.70;50.70
1175;DHT22;576;48.418;10.074;2024-01-27T14:21:05;24.80;50.60
1175;DHT22;576;48.418;10.074;2024-01-27T14:23:33;24.80;50.60
1175;DHT22;576;48.418;10.074;2024-01-27T14:26:02;24.90;50.60
1175;DHT22;576;48.418;10.074;2024-01-27T14:28:30;24.90;50.50
1175;DHT22;576;48.418;10.074;2024-01-27T14:31:00;25.00;50.50
1175;DHT22;576;48.418;10.074;2024-01-27T14:33:28;25.00;50.50
1175;DHT22;576;48.418;10.074;2024-01-27T14:35:56;25.00;50.50
1175;DHT22;576;48.418;10.074;2024-01-27T14:38:25;25.00;50.50
1175;DHT22;576;48.418;10.074;2024-01-27T14:40:54;25.00;50.50
1175;DHT22;576;48.418;10.074;2024-01-27T14:43:22;25.10;50.40
1175;DHT22;576;48.418;10.074;2024-01-27T14:45:50;25.00;50.40
1175;DHT22;576;48.418;10.074;2024-01-27T14:48:20;25.00;50.50
1175;DHT22;576;48.418;10.074;2024-01-27T14:50:48;25.00;50.50
1175;DHT22;576;48.418;10.074;2024-01-27T14:53:19;25.00;50.50
1175;DHT22;576;48.418;10.074;2024-01-27T14:55:48;25.00;50.60
1175;DHT22;576;48.418;10.074;2024-01-27T14:58:16;24.90;50.60
1175;DHT22;576;48.418;10.074;2024-01-27T15:00:44;24.90;50.60
1175;DHT22;576;48.418;10.074;2024-01-27T15:03:21;24.90;50.60
1175;DHT22;576;48.418;10.074;2024-01-27T15:05:51;24.90;50.70
1175;DHT22;576;48.418;10.074;2024-01-27T15:08:21;24.90;50.70
1175;DHT22;576;48.418;10.074;2024-01-27T15:10:49;24.90;50.70
1175;DHT22;576;48.418;10.074;2024-01-27T15:13:18;24.90;50.70
1175;DHT22;576;48.418;10.074;2024-01-27T15:15:47;24.90;50.60
1175;DHT22;576;48.418;10.074;2024-01-27T15:18:15;24.90;50.60
1175;DHT22;576;48.418;10.074;2024-01-27T15:20:45;24.90;50.60
1175;DHT22;576;48.418;10.074;2024-01-27T15:23:14;24.90;50.60
1175;DHT22;576;48.418;10.074;2024-01-27T15:25:42;24.80;50.70
1175;DHT22;576;48.418;10.074;2024-01-27T15:28:11;24.80;50.70
1175;DHT22;576;48.418;10.074;2024-01-27T15:30:39;24.70;50.80
1175;DHT22;576;48.418;10.074;2024-01-27T15:33:09;24.70;50.90
1175;DHT22;576;48.418;10.074;2024-01-27T15:35:38;24.70;51.00
1175;DHT22;576;48.418;10.074;2024-01-27T15:38:08;24.60;51.10
1175;DHT22;576;48.418;10.074;2024-01-27T15:40:37;24.60;51.10
1175;DHT22;576;48.418;10.074;2024-01-27T15:43:05;24.60;51.20
1175;DHT22;576;48.418;10.074;2024-01-27T15:45:34;24.50;51.30
1175;DHT22;576;48.418;10.074;2024-01-27T15:48:03;24.50;51.40
1175;DHT22;576;48.418;10.074;2024-01-27T15:50:31;24.50;51.60
1175;DHT22;576;48.418;10.074;2024-01-27T15:53:00;24.40;51.70
1175;DHT22;576;48.418;10.074;2024-01-27T15:55:31;24.40;51.90
1175;DHT22;576;48.418;10.074;2024-01-27T15:58:00;24.40;52.00
1175;DHT22;576;48.418;10.074;2024-01-27T16:00:28;24.40;52.10
1175;DHT22;576;48.418;10.074;2024-01-27T16:02:57;24.30;52.10
1175;DHT22;576;48.418;10.074;2024-01-27T16:05:25;24.30;52.10
1175;DHT22;576;48.418;10.074;2024-01-27T16:07:54;24.30;52.10
1175;DHT22;576;48.418;10.074;2024-01-27T16:10:22;24.30;52.10
1175;DHT22;576;48.418;10.074;2024-01-27T16:12:52;24.30;52.00